CheckWX is a tool to help pilots better visualize weather data.  It is not intended as a substitute for an official pre-flight weather briefing.

07:09:05 UTC

KEND TAF
Vance AFB Airport
Enid, Oklahoma, USA
TAF AMD KEND 202310Z 2023/2124 16012KT 9999 SCT030 QNH2988INS BECMG 2102/2103 17012KT 9999 BKN012 510052 QNH2992INS BECMG 2114/2115 17012G18KT 9999 VCSH BKN025 QNH2997INS TEMPO 2119/2123 19035G50KT 8000 -TSRA BKN020CB TX30/2122Z TN21/2113Z LAST NO AMDS AFT 2023 NEXT 2210

Sep-20@
23:00 UTC

Sep-20 @ 23:00 UTC

Sep-21@
02:00 UTC

Sep-21 @ 02:00 UTC

TAF AMD KEND 202310Z 2023/2124 16012KT 9999 SCT030 QNH2988INS

Expired

Wind
  • 160° at 12 KTS
Cloud Levels
  • Scattered at 3,000' AGL

Sep-21@
02:00 UTC

Sep-21 @ 02:00 UTC

Sep-21@
14:00 UTC

Sep-21 @ 14:00 UTC

BECMG 2102/2103 17012KT 9999 BKN012 510052 QNH2992INS

Becoming

Becoming Conditions expected by Sat, Sep 21, 2019 @ 03:00 UTC

Wind
  • 170° at 12 KTS
Cloud Levels
  • Broken at 1,200' AGL
Turbulence
< Light turbulence expected at 500' AGL extending to 2,500' AGL

Sep-21@
14:00 UTC

Sep-21 @ 14:00 UTC

Sep-22@
00:00 UTC

Sep-22 @ 00:00 UTC

BECMG 2114/2115 17012G18KT 9999 VCSH BKN025 QNH2997INS

Becoming

Becoming Conditions expected by Sat, Sep 21, 2019 @ 15:00 UTC

Wind
  • 170° at 12 KTS
  • {Gusting to 18 KTS
Cloud Levels
  • Broken at 2,500' AGL

Sep-21@
19:00 UTC

Sep-21 @ 19:00 UTC

Sep-21@
23:00 UTC

Sep-21 @ 23:00 UTC

TEMPO 2119/2123 19035G50KT 8000 -TSRA BKN020CB TX30/2122Z TN21/2113Z LAST NO AMDS AFT 2023 NEXT 2210

Temporary

Temporary Changes expected for less than half the time period

Wind
  • 190° at 35 KTS
  • {Gusting to 50 KTS
Conditions
Light Thunderstorm, Light Rain
Cloud Levels
  • Broken at 2,000' AGL